Time;durP1;ratioP1;P1;durP2;ratioP2;P2;SDS_P1;SDS_P2;PMS_P1;PMS_P2;Temp;Humidity;BMP_temperature;BMP_pressure;BME280_temperature;BME280_humidity;BME280_pressure;Samples;Min_cycle;Max_cycle;Signal;HPM_P1;HPM_P2
2023/04/03 00:00:51;;;;;;;1.97;1.70;;;;;;;4.17;100.00;101143.03;5029711;28;20372;-57
2023/04/03 00:03:17;;;;;;;3.33;1.77;;;;;;;4.24;100.00;101142.09;5041400;28;20323;-58
2023/04/03 00:05:43;;;;;;;4.33;2.00;;;;;;;4.26;100.00;101149.72;5048874;28;20184;-58
2023/04/03 00:08:09;;;;;;;2.00;1.60;;;;;;;4.11;100.00;101138.84;5033460;28;20214;-58
2023/04/03 00:10:35;;;;;;;5.03;1.57;;;;;;;4.30;100.00;101147.09;5041245;28;20319;-58
2023/04/03 00:13:01;;;;;;;2.83;1.77;;;;;;;4.29;100.00;101142.03;5031628;28;20186;-61
2023/04/03 00:15:26;;;;;;;2.53;1.90;;;;;;;4.34;100.00;101147.91;5032214;28;20230;-58
2023/04/03 00:17:52;;;;;;;3.07;1.80;;;;;;;4.33;100.00;101152.19;5033245;28;20188;-58
2023/04/03 00:20:17;;;;;;;3.70;1.70;;;;;;;4.42;100.00;101156.31;5024310;28;20544;-58
2023/04/03 00:22:43;;;;;;;3.43;1.70;;;;;;;4.55;100.00;101151.06;5031228;28;20261;-58
2023/04/03 00:25:09;;;;;;;1.97;1.60;;;;;;;4.57;100.00;101149.38;5033102;28;20210;-58
2023/04/03 00:27:37;;;;;;;1.67;1.57;;;;;;;4.54;100.00;101147.69;5032076;28;20215;-58
2023/04/03 00:30:03;;;;;;;2.87;2.53;;;;;;;4.49;100.00;101145.19;5043043;28;20309;-59
2023/04/03 00:32:28;;;;;;;4.00;1.83;;;;;;;4.48;100.00;101150.31;5029658;28;20206;-59
2023/04/03 00:34:53;;;;;;;4.17;1.60;;;;;;;4.47;100.00;101153.72;5033421;28;20173;-58
2023/04/03 00:37:19;;;;;;;2.90;1.70;;;;;;;4.44;100.00;101156.28;5032936;28;20177;-61
2023/04/03 00:39:45;;;;;;;2.33;1.63;;;;;;;4.57;100.00;101146.81;5033271;28;20532;-59
2023/04/03 00:42:10;;;;;;;2.87;2.00;;;;;;;4.64;100.00;101149.25;5037707;28;20222;-60
2023/04/03 00:44:36;;;;;;;2.00;1.80;;;;;;;4.59;100.00;101150.16;5032829;28;20185;-58
2023/04/03 00:47:04;;;;;;;2.10;1.93;;;;;;;4.61;100.00;101161.19;5032863;28;20229;-59
2023/04/03 00:49:29;;;;;;;3.53;1.90;;;;;;;4.61;100.00;101153.53;5035431;28;20291;-59
2023/04/03 00:51:56;;;;;;;3.53;2.10;;;;;;;4.59;100.00;101152.72;5037242;28;20302;-61
2023/04/03 00:54:21;;;;;;;2.97;2.00;;;;;;;4.58;100.00;101154.44;5031194;28;20189;-65
2023/04/03 00:56:48;;;;;;;5.73;2.10;;;;;;;4.47;100.00;101152.00;5032788;28;20536;-58
2023/04/03 00:59:18;;;;;;;3.33;2.20;;;;;;;4.42;100.00;101152.94;5032683;28;20254;-59
2023/04/03 01:01:44;;;;;;;2.73;1.77;;;;;;;4.33;100.00;101153.91;5040888;28;20279;-59
2023/04/03 01:04:29;;;;;;;2.27;1.40;;;;;;;4.23;100.00;101152.28;5030795;28;20188;-57
2023/04/03 01:06:57;;;;;;;3.97;1.67;;;;;;;4.33;100.00;101152.19;5032172;28;20181;-59
2023/04/03 01:09:23;;;;;;;2.70;1.57;;;;;;;4.12;100.00;101150.72;5022330;28;20584;-58
2023/04/03 01:11:48;;;;;;;3.90;1.80;;;;;;;4.04;100.00;101147.41;5035956;28;20300;-58
2023/04/03 01:14:13;;;;;;;3.77;1.60;;;;;;;4.23;100.00;101149.75;5033229;28;20222;-59
2023/04/03 01:16:39;;;;;;;1.53;1.43;;;;;;;4.16;100.00;101147.28;5032163;28;20748;-59
2023/04/03 01:19:11;;;;;;;3.03;1.43;;;;;;;4.16;100.00;101149.00;5032343;28;20181;-58
2023/04/03 01:21:40;;;;;;;3.03;1.73;;;;;;;4.01;100.00;101147.44;5040585;28;20610;-58
2023/04/03 01:24:42;;;;;;;1.90;1.53;;;;;;;4.03;100.00;101149.13;5030502;28;20662;-58
2023/04/03 01:27:10;;;;;;;1.63;1.30;;;;;;;4.09;100.00;101140.56;5030908;28;20194;-58
2023/04/03 01:29:36;;;;;;;5.73;1.97;;;;;;;4.07;100.00;101147.38;5047129;28;20199;-58
2023/04/03 01:32:03;;;;;;;3.40;1.87;;;;;;;3.98;100.00;101153.41;5035705;28;20232;-58
2023/04/03 01:34:29;;;;;;;3.87;1.90;;;;;;;3.99;100.00;101144.91;5029541;28;20187;-59
2023/04/03 01:36:55;;;;;;;2.87;1.93;;;;;;;3.96;100.00;101144.94;5032063;28;20192;-59
2023/04/03 01:39:21;;;;;;;3.10;2.00;;;;;;;4.08;100.00;101149.06;5047007;28;20176;-59
2023/04/03 01:41:47;;;;;;;4.70;2.03;;;;;;;4.01;100.00;101142.34;5040169;28;20284;-58
2023/04/03 01:44:12;;;;;;;2.83;2.10;;;;;;;4.00;100.00;101146.59;5029871;28;20655;-58
2023/04/03 01:46:38;;;;;;;2.43;1.70;;;;;;;3.96;100.00;101146.66;5031652;28;20182;-58
2023/04/03 01:49:04;;;;;;;3.80;1.60;;;;;;;3.86;100.00;101151.81;5031723;28;20592;-58
2023/04/03 01:51:30;;;;;;;2.10;1.87;;;;;;;3.85;100.00;101154.41;5023461;28;20248;-59
2023/04/03 01:53:55;;;;;;;2.27;1.80;;;;;;;3.91;100.00;101158.56;5029731;28;20209;-58
2023/04/03 01:56:20;;;;;;;2.17;1.80;;;;;;;3.94;100.00;101156.84;5031625;28;20262;-61
2023/04/03 01:58:46;;;;;;;3.73;1.70;;;;;;;3.96;100.00;101156.84;5031395;28;20220;-59
2023/04/03 02:01:11;;;;;;;2.20;1.90;;;;;;;4.07;100.00;101156.72;5030416;28;20237;-58
2023/04/03 02:03:36;;;;;;;3.17;2.40;;;;;;;3.95;100.00;101148.34;5037686;28;20274;-58
2023/04/03 02:06:02;;;;;;;2.80;2.10;;;;;;;3.96;100.00;101147.50;5031625;28;20284;-59
2023/04/03 02:08:27;;;;;;;3.33;2.10;;;;;;;3.87;100.00;101140.78;5030731;28;20182;-59
2023/04/03 02:10:53;;;;;;;4.67;1.93;;;;;;;3.95;100.00;101139.88;5027966;28;20719;-59
2023/04/03 02:13:18;;;;;;;5.93;2.27;;;;;;;3.94;100.00;101150.91;5039526;28;20180;-59
2023/04/03 02:15:45;;;;;;;3.20;2.00;;;;;;;3.86;100.00;101151.00;5031437;28;20216;-58
2023/04/03 02:18:11;;;;;;;6.87;2.33;;;;;;;3.85;100.00;101147.59;5046115;28;20259;-59
2023/04/03 02:20:36;;;;;;;6.27;2.33;;;;;;;3.80;100.00;101146.78;5023007;28;20229;-58
2023/04/03 02:23:02;;;;;;;4.87;2.07;;;;;;;3.92;100.00;101148.38;5041726;28;20202;-57
2023/04/03 02:25:28;;;;;;;3.23;1.77;;;;;;;3.91;100.00;101143.28;5030214;28;20640;-57
2023/04/03 02:27:53;;;;;;;3.20;2.00;;;;;;;3.77;100.00;101139.22;5013463;28;20182;-58
2023/04/03 02:30:19;;;;;;;4.33;2.20;;;;;;;3.85;100.00;101132.31;5023241;28;20198;-58
2023/04/03 02:32:44;;;;;;;2.23;1.80;;;;;;;3.86;100.00;101128.91;5035037;28;20181;-58
2023/04/03 02:35:11;;;;;;;6.73;2.10;;;;;;;3.84;100.00;101139.97;5031523;28;20190;-58
2023/04/03 02:37:36;;;;;;;3.93;1.70;;;;;;;3.72;100.00;101131.59;5046593;28;20190;-58
2023/04/03 02:40:03;;;;;;;4.93;1.97;;;;;;;3.72;100.00;101131.59;5029274;28;20659;-60
2023/04/03 02:42:28;;;;;;;3.53;1.77;;;;;;;3.69;100.00;101138.44;5029218;28;20194;-58
2023/04/03 02:44:54;;;;;;;3.67;1.67;;;;;;;3.62;100.00;101136.78;5034968;28;20236;-58
2023/04/03 02:47:19;;;;;;;3.33;2.30;;;;;;;3.70;100.00;101130.78;5034976;28;20241;-61
2023/04/03 02:49:45;;;;;;;6.63;2.10;;;;;;;3.71;100.00;101139.25;5050467;28;20248;-58
2023/04/03 02:52:11;;;;;;;4.00;2.03;;;;;;;3.68;100.00;101140.13;5039668;28;20229;-59
2023/04/03 02:54:36;;;;;;;5.63;1.87;;;;;;;3.67;100.00;101142.66;5021962;28;20205;-58
2023/04/03 02:57:02;;;;;;;2.63;1.53;;;;;;;3.64;100.00;101148.63;5034974;28;20174;-59
2023/04/03 02:59:27;;;;;;;3.23;1.93;;;;;;;3.66;100.00;101146.94;5034707;28;20186;-58
2023/04/03 03:01:52;;;;;;;2.50;1.63;;;;;;;3.68;100.00;101144.38;5044033;28;20302;-59
2023/04/03 03:04:18;;;;;;;2.43;1.80;;;;;;;3.70;100.00;101143.50;5037095;28;20277;-58
2023/04/03 03:06:43;;;;;;;2.30;1.60;;;;;;;3.72;100.00;101144.34;5034702;28;20650;-58
2023/04/03 03:09:08;;;;;;;3.53;1.83;;;;;;;3.63;100.00;101143.56;5034441;28;20226;-58
2023/04/03 03:11:34;;;;;;;4.53;1.93;;;;;;;3.67;100.00;101140.13;5036687;28;20232;-60
2023/04/03 03:13:59;;;;;;;2.90;1.67;;;;;;;3.63;100.00;101144.41;5048657;28;20552;-58
2023/04/03 03:16:25;;;;;;;3.13;2.00;;;;;;;3.65;100.00;101146.94;5035255;28;20233;-58
2023/04/03 03:18:50;;;;;;;2.50;1.60;;;;;;;3.70;100.00;101147.75;5039476;28;20213;-59
2023/04/03 03:21:15;;;;;;;2.17;1.77;;;;;;;3.65;100.00;101155.41;5033738;28;20582;-58
2023/04/03 03:23:41;;;;;;;6.27;3.13;;;;;;;3.59;100.00;101152.94;5039651;28;20291;-59
2023/04/03 03:26:09;;;;;;;4.13;1.90;;;;;;;3.53;100.00;101152.97;5034488;28;20213;-59
2023/04/03 03:28:36;;;;;;;4.50;2.20;;;;;;;3.52;100.00;101152.16;5045523;28;20245;-59
2023/04/03 03:31:02;;;;;;;7.00;2.10;;;;;;;3.52;100.00;101154.69;4991748;28;20230;-58
2023/04/03 03:33:27;;;;;;;4.17;2.07;;;;;;;3.54;100.00;101152.13;5012257;28;20190;-58
2023/04/03 03:35:53;;;;;;;6.40;1.90;;;;;;;3.49;100.00;101151.31;5014468;28;20206;-59
2023/04/03 03:38:19;;;;;;;4.13;1.90;;;;;;;3.47;100.00;101153.84;5014475;28;20201;-58
2023/04/03 03:40:44;;;;;;;5.07;1.60;;;;;;;3.40;100.00;101157.34;5009349;28;20232;-57
2023/04/03 03:43:09;;;;;;;5.23;1.67;;;;;;;3.42;100.00;101154.78;5023723;28;20183;-59
2023/04/03 03:45:34;;;;;;;3.63;1.67;;;;;;;3.28;100.00;101159.97;5014511;28;20193;-58
2023/04/03 03:48:00;;;;;;;2.77;1.87;;;;;;;3.30;100.00;101161.63;5029432;28;20213;-59
2023/04/03 03:50:26;;;;;;;3.37;1.83;;;;;;;3.30;100.00;101159.09;5008720;28;20723;-59
2023/04/03 03:52:51;;;;;;;6.23;2.40;;;;;;;3.33;100.00;101161.59;5045788;28;20174;-59
2023/04/03 03:55:16;;;;;;;4.63;1.90;;;;;;;3.26;100.00;101161.66;5032998;28;20572;-59
2023/04/03 03:57:41;;;;;;;5.83;1.97;;;;;;;3.26;100.00;101166.75;5033909;28;20182;-58
2023/04/03 04:00:08;;;;;;;5.43;2.03;;;;;;;3.18;100.00;101156.66;5024151;28;20198;-59
2023/04/03 04:02:33;;;;;;;5.23;1.73;;;;;;;3.13;100.00;101163.47;5047800;28;20178;-59
2023/04/03 04:04:59;;;;;;;2.60;1.60;;;;;;;3.06;100.00;101155.00;5033709;28;20193;-58
2023/04/03 04:07:27;;;;;;;3.70;1.70;;;;;;;3.00;100.00;101158.47;5033675;28;20192;-58
2023/04/03 04:09:52;;;;;;;5.27;1.73;;;;;;;2.97;100.00;101163.53;5033531;28;20237;-59
2023/04/03 04:12:18;;;;;;;3.73;1.77;;;;;;;2.90;100.00;101156.81;5038580;28;20236;-60
2023/04/03 04:14:46;;;;;;;5.30;2.27;;;;;;;2.86;100.00;101158.50;5033339;28;20198;-59
2023/04/03 04:17:11;;;;;;;5.60;2.00;;;;;;;2.85;100.00;101159.38;5032294;28;20206;-59
2023/04/03 04:19:36;;;;;;;5.33;1.47;;;;;;;2.84;100.00;101152.63;5033256;28;20236;-59
2023/04/03 04:22:02;;;;;;;4.00;1.80;;;;;;;2.90;100.00;101156.81;5038018;28;20256;-59
2023/04/03 04:24:27;;;;;;;6.20;1.93;;;;;;;2.81;100.00;101167.03;5032984;28;20174;-59
2023/04/03 04:26:52;;;;;;;3.10;1.40;;;;;;;2.78;100.00;101170.44;5033329;28;20269;-59
2023/04/03 04:29:17;;;;;;;5.67;1.80;;;;;;;2.75;100.00;101162.81;5047804;28;20256;-60
2023/04/03 04:31:43;;;;;;;3.13;1.50;;;;;;;2.79;100.00;101176.34;5036186;28;20335;-59
2023/04/03 04:34:08;;;;;;;3.43;1.90;;;;;;;2.80;100.00;101171.25;5035099;28;20648;-58
2023/04/03 04:36:33;;;;;;;5.57;1.77;;;;;;;2.75;100.00;101165.34;5032995;28;20220;-58
2023/04/03 04:38:59;;;;;;;4.20;1.60;;;;;;;2.71;100.00;101166.22;5032973;28;20177;-58
2023/04/03 04:41:24;;;;;;;4.03;1.50;;;;;;;2.72;100.00;101173.00;5033416;28;20291;-57
2023/04/03 04:43:50;;;;;;;5.20;1.63;;;;;;;2.76;100.00;101164.50;5037193;28;20200;-58
2023/04/03 04:46:15;;;;;;;1.67;1.57;;;;;;;2.70;100.00;101170.44;5048290;28;20190;-59
2023/04/03 04:48:41;;;;;;;3.37;1.90;;;;;;;2.66;100.00;101173.03;5032954;28;20194;-60
2023/04/03 04:51:06;;;;;;;3.63;1.73;;;;;;;2.60;100.00;101173.88;5030606;28;20233;-58
2023/04/03 04:53:31;;;;;;;4.13;2.10;;;;;;;2.47;100.00;101173.09;5039321;28;20182;-58
2023/04/03 04:55:57;;;;;;;4.40;2.27;;;;;;;2.35;100.00;101168.91;5032320;28;20181;-58
2023/04/03 04:58:22;;;;;;;3.63;1.70;;;;;;;2.27;100.00;101183.34;5032636;28;20185;-59
2023/04/03 05:00:48;;;;;;;4.50;1.77;;;;;;;2.24;100.00;101181.63;5028222;28;20239;-59
2023/04/03 05:03:13;;;;;;;3.17;1.80;;;;;;;2.21;100.00;101180.81;5041723;28;20251;-58
2023/04/03 05:05:38;;;;;;;2.53;1.70;;;;;;;2.14;100.00;101190.13;5032168;28;20184;-58
2023/04/03 05:08:04;;;;;;;7.27;1.83;;;;;;;2.09;100.00;101190.13;5032483;28;20202;-58
2023/04/03 05:10:30;;;;;;;6.70;2.10;;;;;;;2.12;100.00;101183.34;5040093;28;20236;-59
2023/04/03 05:12:55;;;;;;;2.97;2.00;;;;;;;2.12;100.00;101193.50;5043929;28;20244;-60
2023/04/03 05:15:23;;;;;;;4.33;1.87;;;;;;;2.08;100.00;101196.06;5032484;28;20208;-60
2023/04/03 05:17:50;;;;;;;3.87;2.20;;;;;;;2.04;100.00;101188.47;5032787;28;20178;-58
2023/04/03 05:20:17;;;;;;;8.97;2.00;;;;;;;2.11;100.00;101197.75;5022248;28;20555;-59
2023/04/03 05:22:42;;;;;;;4.30;2.43;;;;;;;2.08;100.00;101203.69;5030240;28;20180;-59
2023/04/03 05:25:08;;;;;;;2.07;1.40;;;;;;;2.01;100.00;101207.06;5031836;28;20179;-58
2023/04/03 05:27:34;;;;;;;4.30;1.93;;;;;;;1.97;100.00;101197.75;5030714;28;20260;-58
2023/04/03 05:29:59;;;;;;;6.43;2.20;;;;;;;1.97;100.00;101202.00;5031990;28;20316;-58
2023/04/03 05:32:27;;;;;;;8.30;2.07;;;;;;;1.94;100.00;101205.38;5036362;28;20232;-58
2023/04/03 05:34:52;;;;;;;5.93;2.20;;;;;;;1.95;100.00;101207.09;5034011;28;20542;-58
2023/04/03 05:37:18;;;;;;;4.37;2.20;;;;;;;1.94;100.00;101210.47;5031934;28;20207;-61
2023/04/03 05:39:43;;;;;;;4.37;2.20;;;;;;;1.88;100.00;101211.28;5031983;28;20188;-58
2023/04/03 05:42:08;;;;;;;5.73;2.63;;;;;;;1.89;100.00;101213.00;5037100;28;20232;-58
2023/04/03 05:44:34;;;;;;;4.67;2.37;;;;;;;1.90;100.00;101214.69;5031704;28;20239;-59
2023/04/03 05:47:00;;;;;;;3.83;2.20;;;;;;;1.90;100.00;101217.22;5031530;28;20186;-58
2023/04/03 05:49:25;;;;;;;7.33;2.67;;;;;;;1.98;100.00;101224.81;5031175;28;20574;-59
2023/04/03 05:51:51;;;;;;;6.03;2.00;;;;;;;2.06;100.00;101223.13;5035697;28;20220;-59
2023/04/03 05:54:25;;;;;;;5.53;2.00;;;;;;;2.12;100.00;101223.97;5031240;28;20200;-59
2023/04/03 05:56:51;;;;;;;3.57;1.87;;;;;;;2.09;100.00;101227.34;5041290;28;20189;-60
2023/04/03 05:59:17;;;;;;;4.57;1.80;;;;;;;2.07;100.00;101229.03;5047006;28;20189;-59
2023/04/03 06:01:43;;;;;;;3.73;2.53;;;;;;;2.04;100.00;101237.50;5009528;28;20247;-59
2023/04/03 06:04:11;;;;;;;6.03;2.20;;;;;;;2.10;100.00;101237.50;5036827;28;20210;-59
2023/04/03 06:06:52;;;;;;;3.10;1.73;;;;;;;2.10;100.00;101236.66;5034171;28;20244;-59
2023/04/03 06:09:20;;;;;;;4.70;2.27;;;;;;;2.19;100.00;101245.97;5031056;28;20571;-58
2023/04/03 06:11:46;;;;;;;5.07;2.20;;;;;;;2.32;100.00;101234.09;5051929;28;20723;-58
2023/04/03 06:14:11;;;;;;;5.23;2.13;;;;;;;2.34;100.00;101240.00;5032745;28;20230;-60
2023/04/03 06:16:37;;;;;;;3.20;1.90;;;;;;;2.38;100.00;101242.56;5032005;28;20324;-60
2023/04/03 06:19:02;;;;;;;5.27;2.77;;;;;;;2.34;100.00;101251.00;5053149;28;20212;-59
2023/04/03 06:21:27;;;;;;;8.13;2.57;;;;;;;2.27;100.00;101251.88;5038883;28;20701;-59
2023/04/03 06:23:53;;;;;;;5.00;2.60;;;;;;;2.40;100.00;101255.25;5041698;28;20279;-59
2023/04/03 06:26:18;;;;;;;6.90;1.93;;;;;;;2.46;100.00;101250.16;5037109;28;20230;-59
2023/04/03 06:28:43;;;;;;;5.27;2.23;;;;;;;2.42;100.00;101256.09;5037731;28;20258;-59
2023/04/03 06:31:08;;;;;;;7.80;2.87;;;;;;;2.46;100.00;101257.75;5034838;28;20224;-59
2023/04/03 06:33:34;;;;;;;7.33;2.80;;;;;;;2.64;100.00;101256.03;5043986;28;20550;-58
2023/04/03 06:36:05;;;;;;;6.10;2.30;;;;;;;2.66;100.00;101272.13;5037387;28;20240;-58
2023/04/03 06:38:31;;;;;;;6.17;2.23;;;;;;;2.68;100.00;101257.69;5036336;28;20181;-58
2023/04/03 06:40:56;;;;;;;4.53;2.20;;;;;;;2.57;100.00;101263.66;5029816;28;20213;-58
2023/04/03 06:43:22;;;;;;;4.50;2.30;;;;;;;2.52;100.00;101267.06;5045769;28;20531;-58
2023/04/03 06:45:47;;;;;;;4.07;2.20;;;;;;;2.99;100.00;101262.66;5037712;28;20213;-58
2023/04/03 06:48:13;;;;;;;3.87;2.10;;;;;;;3.54;100.00;101262.34;5037712;28;20641;-58
2023/04/03 06:50:38;;;;;;;2.87;2.00;;;;;;;4.20;100.00;101263.56;5031490;28;20311;-59
2023/04/03 06:53:04;;;;;;;5.83;2.40;;;;;;;4.85;100.00;101269.66;5035966;28;20641;-58
2023/04/03 06:55:29;;;;;;;6.57;2.00;;;;;;;5.81;96.96;101264.06;5037389;28;20204;-57
2023/04/03 06:57:55;;;;;;;4.37;2.37;;;;;;;6.60;90.11;101262.72;5037628;28;20182;-58
2023/04/03 07:00:20;;;;;;;3.97;2.00;;;;;;;7.15;81.17;101269.31;5018026;28;20181;-58
2023/04/03 07:02:46;;;;;;;3.70;2.30;;;;;;;7.77;84.35;101267.91;5040087;28;20405;-59
2023/04/03 07:05:11;;;;;;;5.17;2.23;;;;;;;6.40;82.52;101272.47;5037046;28;20275;-59
2023/04/03 07:07:37;;;;;;;3.40;1.80;;;;;;;6.11;86.78;101277.22;5037604;28;20177;-59
2023/04/03 07:10:03;;;;;;;4.13;1.80;;;;;;;6.86;82.98;101284.38;5033323;28;20221;-59
2023/04/03 07:12:28;;;;;;;4.40;2.20;;;;;;;8.46;68.83;101279.00;5050020;28;20220;-58
2023/04/03 07:14:54;;;;;;;3.67;2.00;;;;;;;7.42;70.51;101289.16;5037119;28;20209;-58
2023/04/03 07:17:19;;;;;;;4.93;2.13;;;;;;;7.31;73.88;101283.44;5042394;28;20224;-60
2023/04/03 07:19:44;;;;;;;4.37;2.07;;;;;;;7.83;69.78;101278.84;5036993;28;20589;-59
2023/04/03 07:22:11;;;;;;;4.67;2.23;;;;;;;8.01;66.33;101281.81;5042004;28;20225;-59
2023/04/03 07:24:36;;;;;;;6.40;2.50;;;;;;;7.64;66.87;101282.72;5045760;28;20224;-59
2023/04/03 07:27:02;;;;;;;6.83;2.63;;;;;;;7.31;68.45;101283.44;5037304;28;20174;-57
2023/04/03 07:29:28;;;;;;;4.30;2.13;;;;;;;6.74;75.88;101293.13;5050326;28;20206;-58
2023/04/03 07:31:55;;;;;;;4.67;2.40;;;;;;;7.64;68.62;101293.81;5040492;28;20275;-60
2023/04/03 07:34:20;;;;;;;5.87;2.40;;;;;;;7.68;69.48;101294.59;5034578;28;20224;-58
2023/04/03 07:36:46;;;;;;;3.80;2.00;;;;;;;7.98;64.52;101297.28;5043182;28;20185;-59
2023/04/03 07:39:11;;;;;;;5.27;2.87;;;;;;;7.88;62.33;101294.09;5053649;28;20178;-59
2023/04/03 07:41:36;;;;;;;2.83;1.87;;;;;;;7.50;67.42;101301.78;5055734;28;20730;-60
2023/04/03 07:44:02;;;;;;;4.60;2.47;;;;;;;8.07;63.08;101305.59;5056202;28;20205;-59
2023/04/03 07:46:27;;;;;;;4.53;1.97;;;;;;;8.29;61.32;101312.72;5053216;28;20181;-60
2023/04/03 07:48:53;;;;;;;4.77;2.17;;;;;;;7.59;64.98;101305.84;5052496;28;20181;-59
2023/04/03 07:51:19;;;;;;;6.13;2.60;;;;;;;7.59;66.37;101313.53;5047795;28;20233;-60
2023/04/03 07:53:44;;;;;;;6.37;2.60;;;;;;;6.94;68.99;101313.19;5041618;28;20182;-60
2023/04/03 07:56:09;;;;;;;7.03;2.23;;;;;;;7.18;72.51;101318.72;5035160;28;20182;-58
2023/04/03 07:58:35;;;;;;;3.70;2.17;;;;;;;6.88;69.06;101313.31;5035379;28;20182;-58
2023/04/03 08:01:01;;;;;;;4.73;2.27;;;;;;;7.58;70.16;101317.84;5046584;28;20602;-59
2023/04/03 08:03:26;;;;;;;3.53;1.70;;;;;;;7.10;70.99;101320.56;5040580;28;20189;-58
2023/04/03 08:05:53;;;;;;;3.20;2.00;;;;;;;7.33;69.63;101319.25;5032572;28;20538;-58
2023/04/03 08:08:21;;;;;;;3.87;2.23;;;;;;;7.08;66.32;101320.59;5033519;28;20194;-59
2023/04/03 08:10:52;;;;;;;3.83;1.90;;;;;;;6.70;72.15;101314.53;5025056;28;20244;-59
2023/04/03 08:13:18;;;;;;;4.10;2.83;;;;;;;7.39;67.09;101325.09;5031462;28;20182;-60
2023/04/03 08:15:44;;;;;;;4.83;2.30;;;;;;;7.18;68.41;101318.72;5032487;28;20264;-63
2023/04/03 08:18:10;;;;;;;6.10;2.20;;;;;;;7.09;66.86;101324.00;5048939;28;20269;-58
2023/04/03 08:20:35;;;;;;;5.20;2.23;;;;;;;7.23;63.92;101328.81;5027740;28;20236;-58
2023/04/03 08:23:01;;;;;;;5.17;2.10;;;;;;;7.21;65.16;101328.88;5043624;28;20180;-59
2023/04/03 08:25:26;;;;;;;2.57;1.90;;;;;;;7.89;61.58;101321.41;5032845;28;20189;-60
2023/04/03 08:27:51;;;;;;;2.87;1.70;;;;;;;8.66;56.66;101319.50;5042553;28;20209;-60
2023/04/03 08:30:17;;;;;;;5.73;2.07;;;;;;;7.80;58.75;101314.78;5023738;28;20198;-58
2023/04/03 08:32:43;;;;;;;2.63;1.90;;;;;;;7.73;58.87;101319.19;5030878;28;20185;-59
2023/04/03 08:35:09;;;;;;;4.13;2.23;;;;;;;8.21;59.28;101317.19;5032755;28;20212;-59
2023/04/03 08:37:36;;;;;;;4.80;2.50;;;;;;;7.66;61.13;101324.50;5031056;28;20213;-59
2023/04/03 08:40:03;;;;;;;5.20;2.13;;;;;;;8.06;58.95;101323.53;5048002;28;20629;-60
2023/04/03 08:43:07;;;;;;;2.90;2.27;;;;;;;7.53;63.76;101322.22;5036879;28;20333;-58
2023/04/03 08:45:45;;;;;;;4.10;2.10;;;;;;;8.14;63.90;101321.66;5045053;28;20190;-60
2023/04/03 08:48:23;;;;;;;4.03;1.93;;;;;;;8.90;56.10;101316.31;5049425;28;20189;-59
2023/04/03 08:50:54;;;;;;;5.30;2.30;;;;;;;8.58;60.22;101323.16;5039836;28;20581;-59
2023/04/03 08:53:42;;;;;;;2.90;2.33;;;;;;;9.03;56.92;101313.34;5022750;28;20621;-59
2023/04/03 08:56:09;;;;;;;5.17;2.30;;;;;;;9.43;55.86;101313.88;5029082;28;20211;-61
2023/04/03 08:59:01;;;;;;;5.13;2.40;;;;;;;9.77;53.38;101325.69;5030911;28;20208;-60
2023/04/03 09:01:35;;;;;;;3.47;2.23;;;;;;;9.40;51.07;101326.81;5040497;28;20264;-59
2023/04/03 09:04:03;;;;;;;3.30;2.13;;;;;;;8.37;55.90;101320.22;5034919;28;20210;-59
2023/04/03 09:06:32;;;;;;;5.20;1.90;;;;;;;8.80;53.63;101321.66;5047456;28;20182;-59
2023/04/03 09:09:30;;;;;;;3.67;2.38;;;;;;;9.67;51.64;101326.88;5029302;28;20429;-60
2023/04/03 09:11:55;;;;;;;5.70;2.40;;;;;;;8.72;54.94;101326.19;5026836;28;20459;-65
2023/04/03 09:14:35;;;;;;;5.23;2.47;;;;;;;9.25;54.22;101328.09;5030330;28;20208;-59
2023/04/03 09:17:30;;;;;;;5.27;2.20;;;;;;;10.06;50.57;101317.91;5041096;28;20217;-60
2023/04/03 09:20:28;;;;;;;5.30;2.10;;;;;;;8.78;54.71;101317.47;5026592;28;20200;-59
2023/04/03 09:22:54;;;;;;;4.23;1.87;;;;;;;9.88;49.82;101319.38;5005322;28;20228;-58
2023/04/03 09:25:27;;;;;;;6.13;1.60;;;;;;;9.34;49.09;101340.69;5031821;28;20186;-58
2023/04/03 09:27:52;;;;;;;5.25;2.30;;;;;;;9.98;48.36;101328.47;5046643;28;20884;-59
2023/04/03 09:30:22;;;;;;;2.97;2.00;;;;;;;9.27;49.21;101323.78;5023534;28;20343;-59
2023/04/03 09:32:49;;;;;;;5.80;2.13;;;;;;;8.79;49.63;101331.97;5033969;28;21709;-61
2023/04/03 09:35:27;;;;;;;5.50;2.20;;;;;;;8.91;50.45;101307.72;5018474;28;20693;-61
2023/04/03 09:37:58;;;;;;;2.57;1.57;;;;;;;9.41;49.55;101307.13;5030706;28;20645;-60
2023/04/03 09:40:26;;;;;;;4.70;2.07;;;;;;;9.09;49.47;101311.47;5039150;28;20228;-59
2023/04/03 09:43:00;;;;;;;2.90;1.60;;;;;;;9.05;49.47;101321.00;5042359;28;20186;-59
2023/04/03 09:45:28;;;;;;;3.13;1.80;;;;;;;8.13;50.50;101306.31;5046250;28;20232;-59
2023/04/03 09:48:12;;;;;;;3.80;1.80;;;;;;;9.49;50.28;101315.44;5030440;28;20178;-60
2023/04/03 09:50:55;;;;;;;6.50;2.43;;;;;;;7.78;51.97;101328.47;5020028;28;20249;-58
2023/04/03 09:53:39;;;;;;;1.73;1.60;;;;;;;6.28;63.34;101317.81;5030837;28;20178;-58
2023/04/03 09:56:16;;;;;;;4.93;2.20;;;;;;;5.82;73.01;101329.59;5025189;28;20239;-58
2023/04/03 09:58:45;;;;;;;3.57;2.07;;;;;;;5.77;72.38;101341.59;5031227;28;20675;-59
2023/04/03 10:01:32;;;;;;;5.23;2.40;;;;;;;6.43;69.83;101309.03;5029648;28;20286;-59
2023/04/03 10:04:16;;;;;;;7.23;2.23;;;;;;;6.53;67.68;101317.38;5012040;28;20280;-58
2023/04/03 10:06:51;;;;;;;3.92;2.38;;;;;;;6.33;71.74;101317.75;5028630;28;20436;-59
2023/04/03 10:09:28;;;;;;;5.27;2.20;;;;;;;5.80;73.60;101320.25;5012286;28;20225;-59
2023/04/03 10:12:11;;;;;;;5.73;2.23;;;;;;;5.48;78.75;101324.97;5018740;28;20219;-65
2023/04/03 10:14:54;;;;;;;3.50;1.97;;;;;;;5.71;81.35;101325.53;5011675;28;20218;-60
2023/04/03 10:17:41;;;;;;;3.97;1.87;;;;;;;6.92;66.36;101316.66;5002737;28;20273;-59
2023/04/03 10:20:30;;;;;;;4.80;2.13;;;;;;;6.25;71.96;101320.44;5017721;28;20768;-58
2023/04/03 10:23:23;;;;;;;3.43;2.00;;;;;;;7.82;64.84;101305.31;5024134;28;20251;-59
2023/04/03 10:25:57;;;;;;;5.80;2.63;;;;;;;7.41;61.75;101309.69;5022080;28;20513;-58
2023/04/03 10:28:45;;;;;;;3.43;2.17;;;;;;;7.81;56.82;101305.38;5024593;28;20276;-59
2023/04/03 10:31:19;;;;;;;2.57;2.10;;;;;;;6.37;64.94;101323.66;5001861;28;20261;-58
2023/04/03 10:34:06;;;;;;;8.20;2.33;;;;;;;5.96;73.93;101324.25;5011797;28;20199;-58
2023/04/03 10:36:57;;;;;;;7.03;2.43;;;;;;;6.25;71.84;101323.00;5031107;28;20292;-59
2023/04/03 10:39:41;;;;;;;3.30;1.93;;;;;;;6.34;68.65;101306.66;5015013;28;20259;-58
2023/04/03 10:42:23;;;;;;;5.60;2.20;;;;;;;6.05;70.43;101312.25;5036104;28;20225;-60
2023/04/03 10:45:20;;;;;;;3.40;1.97;;;;;;;6.27;67.41;101310.19;5046225;28;20653;-58
2023/04/03 10:47:53;;;;;;;5.30;2.07;;;;;;;6.13;68.47;101312.97;5046189;28;20193;-59
2023/04/03 10:50:39;;;;;;;3.47;1.97;;;;;;;5.85;66.40;101269.13;5021347;28;20198;-58
2023/04/03 10:53:17;;;;;;;3.37;2.03;;;;;;;6.15;70.47;101308.66;5041399;28;20521;-58
2023/04/03 10:55:54;;;;;;;3.53;2.10;;;;;;;5.94;66.63;101303.03;5030807;28;20208;-59
2023/04/03 10:58:42;;;;;;;4.00;2.23;;;;;;;6.00;70.38;101289.31;5030580;28;20192;-60
2023/04/03 11:01:13;;;;;;;1.70;1.50;;;;;;;6.26;67.33;101299.13;5013436;28;20221;-58
2023/04/03 11:03:42;;;;;;;3.47;1.83;;;;;;;5.97;66.13;101297.84;5029392;28;20208;-58
2023/04/03 11:06:11;;;;;;;3.70;1.60;;;;;;;6.02;66.12;101304.66;5034375;28;20178;-58
2023/04/03 11:08:56;;;;;;;4.47;2.00;;;;;;;6.10;68.08;101296.00;5032551;28;20178;-59
2023/04/03 11:11:27;;;;;;;4.33;2.33;;;;;;;6.50;65.14;101291.03;5042343;28;20232;-60
2023/04/03 11:14:11;;;;;;;4.90;2.43;;;;;;;6.42;63.41;101291.19;5016639;28;20699;-59
2023/04/03 11:16:45;;;;;;;3.10;1.97;;;;;;;6.31;65.13;101283.69;5034798;28;20266;-59
2023/04/03 11:19:21;;;;;;;6.17;2.53;;;;;;;6.53;65.81;101280.75;5035969;28;20419;-59
2023/04/03 11:22:05;;;;;;;2.33;2.10;;;;;;;6.42;64.57;101286.06;5037570;28;20591;-60
2023/04/03 11:24:32;;;;;;;3.73;2.07;;;;;;;6.13;66.22;101278.03;5033430;28;20655;-59
2023/04/03 11:27:04;;;;;;;4.57;2.50;;;;;;;6.66;63.53;101279.66;5032862;28;20641;-59
2023/04/03 11:29:34;;;;;;;4.37;2.20;;;;;;;6.48;59.02;101275.72;5049167;28;20225;-59
2023/04/03 11:32:42;;;;;;;4.17;2.43;;;;;;;6.55;60.26;101263.66;5023966;28;20230;-59
2023/04/03 11:35:09;;;;;;;4.80;2.10;;;;;;;6.72;59.27;101269.31;5022930;28;20188;-58
2023/04/03 11:37:39;;;;;;;3.33;1.97;;;;;;;6.91;58.86;101274.06;5035442;28;20189;-58